sensor_id;sensor_type;location;lat;lon;timestamp;P1;durP1;ratioP1;P2;durP2;ratioP2
14550;SDS011;7362;50.956;4.184;2022-10-16T00:01:24;1.35;;;0.70;;
14550;SDS011;7362;50.956;4.184;2022-10-16T00:03:52;1.30;;;0.80;;
14550;SDS011;7362;50.956;4.184;2022-10-16T00:06:18;2.25;;;1.08;;
14550;SDS011;7362;50.956;4.184;2022-10-16T00:08:45;1.45;;;0.82;;
14550;SDS011;7362;50.956;4.184;2022-10-16T00:13:44;1.88;;;0.70;;
14550;SDS011;7362;50.956;4.184;2022-10-16T00:16:11;2.85;;;1.10;;
14550;SDS011;7362;50.956;4.184;2022-10-16T00:18:38;1.45;;;0.77;;
14550;SDS011;7362;50.956;4.184;2022-10-16T00:21:07;1.50;;;0.88;;
14550;SDS011;7362;50.956;4.184;2022-10-16T00:23:35;1.67;;;0.75;;
14550;SDS011;7362;50.956;4.184;2022-10-16T00:26:04;2.08;;;0.98;;
14550;SDS011;7362;50.956;4.184;2022-10-16T00:28:33;1.27;;;0.77;;
14550;SDS011;7362;50.956;4.184;2022-10-16T00:31:08;1.50;;;0.82;;
14550;SDS011;7362;50.956;4.184;2022-10-16T00:33:38;2.15;;;1.05;;
14550;SDS011;7362;50.956;4.184;2022-10-16T00:36:05;1.00;;;0.75;;
14550;SDS011;7362;50.956;4.184;2022-10-16T00:38:34;2.33;;;0.95;;
14550;SDS011;7362;50.956;4.184;2022-10-16T00:40:59;1.67;;;0.80;;
14550;SDS011;7362;50.956;4.184;2022-10-16T00:48:52;1.25;;;0.85;;
14550;SDS011;7362;50.956;4.184;2022-10-16T00:51:28;2.88;;;1.10;;
14550;SDS011;7362;50.956;4.184;2022-10-16T00:54:03;2.35;;;0.95;;
14550;SDS011;7362;50.956;4.184;2022-10-16T00:56:34;3.22;;;0.80;;
14550;SDS011;7362;50.956;4.184;2022-10-16T00:59:03;2.22;;;1.00;;
14550;SDS011;7362;50.956;4.184;2022-10-16T01:01:32;1.80;;;0.90;;
14550;SDS011;7362;50.956;4.184;2022-10-16T01:04:01;2.42;;;1.10;;
14550;SDS011;7362;50.956;4.184;2022-10-16T01:12:16;1.60;;;0.70;;
14550;SDS011;7362;50.956;4.184;2022-10-16T01:14:59;1.77;;;0.90;;
14550;SDS011;7362;50.956;4.184;2022-10-16T01:17:38;1.20;;;1.10;;
14550;SDS011;7362;50.956;4.184;2022-10-16T01:20:25;3.28;;;1.20;;
14550;SDS011;7362;50.956;4.184;2022-10-16T01:25:49;1.70;;;0.93;;
14550;SDS011;7362;50.956;4.184;2022-10-16T01:31:40;3.40;;;1.00;;
14550;SDS011;7362;50.956;4.184;2022-10-16T01:34:25;1.42;;;0.93;;
14550;SDS011;7362;50.956;4.184;2022-10-16T01:37:18;1.55;;;0.90;;
14550;SDS011;7362;50.956;4.184;2022-10-16T01:39:54;2.92;;;1.17;;
14550;SDS011;7362;50.956;4.184;2022-10-16T01:42:24;2.33;;;0.90;;
14550;SDS011;7362;50.956;4.184;2022-10-16T01:44:56;1.88;;;1.08;;
14550;SDS011;7362;50.956;4.184;2022-10-16T01:47:25;1.30;;;0.80;;
14550;SDS011;7362;50.956;4.184;2022-10-16T01:49:52;3.72;;;1.55;;
14550;SDS011;7362;50.956;4.184;2022-10-16T01:52:20;1.33;;;0.88;;
14550;SDS011;7362;50.956;4.184;2022-10-16T01:54:52;3.90;;;0.98;;
14550;SDS011;7362;50.956;4.184;2022-10-16T01:57:21;2.17;;;1.00;;
14550;SDS011;7362;50.956;4.184;2022-10-16T01:59:50;1.63;;;1.02;;
14550;SDS011;7362;50.956;4.184;2022-10-16T02:02:20;2.20;;;0.90;;
14550;SDS011;7362;50.956;4.184;2022-10-16T02:05:10;1.52;;;0.95;;
14550;SDS011;7362;50.956;4.184;2022-10-16T02:07:43;3.55;;;0.90;;
14550;SDS011;7362;50.956;4.184;2022-10-16T02:10:11;1.38;;;0.70;;
14550;SDS011;7362;50.956;4.184;2022-10-16T02:12:38;4.45;;;1.08;;
14550;SDS011;7362;50.956;4.184;2022-10-16T02:15:08;3.13;;;1.00;;
14550;SDS011;7362;50.956;4.184;2022-10-16T02:17:34;2.00;;;0.60;;
14550;SDS011;7362;50.956;4.184;2022-10-16T02:20:02;1.08;;;0.82;;
14550;SDS011;7362;50.956;4.184;2022-10-16T02:22:36;1.00;;;0.82;;
14550;SDS011;7362;50.956;4.184;2022-10-16T02:25:08;1.52;;;1.02;;
14550;SDS011;7362;50.956;4.184;2022-10-16T02:27:41;2.78;;;1.10;;
14550;SDS011;7362;50.956;4.184;2022-10-16T02:33:07;2.20;;;1.20;;
14550;SDS011;7362;50.956;4.184;2022-10-16T02:35:36;3.42;;;1.00;;
14550;SDS011;7362;50.956;4.184;2022-10-16T02:38:03;2.72;;;1.10;;
14550;SDS011;7362;50.956;4.184;2022-10-16T02:40:30;1.67;;;1.10;;
14550;SDS011;7362;50.956;4.184;2022-10-16T02:42:56;2.50;;;1.17;;
14550;SDS011;7362;50.956;4.184;2022-10-16T02:45:22;3.05;;;1.27;;
14550;SDS011;7362;50.956;4.184;2022-10-16T02:47:48;2.70;;;1.10;;
14550;SDS011;7362;50.956;4.184;2022-10-16T02:50:14;1.10;;;0.88;;
14550;SDS011;7362;50.956;4.184;2022-10-16T02:52:42;2.17;;;1.20;;
14550;SDS011;7362;50.956;4.184;2022-10-16T02:55:07;2.13;;;1.10;;
14550;SDS011;7362;50.956;4.184;2022-10-16T02:57:33;3.58;;;1.20;;
14550;SDS011;7362;50.956;4.184;2022-10-16T03:00:00;3.53;;;1.20;;
14550;SDS011;7362;50.956;4.184;2022-10-16T03:02:25;2.38;;;1.15;;
14550;SDS011;7362;50.956;4.184;2022-10-16T03:04:52;1.95;;;1.00;;
14550;SDS011;7362;50.956;4.184;2022-10-16T03:07:20;4.40;;;1.00;;
14550;SDS011;7362;50.956;4.184;2022-10-16T03:09:45;1.67;;;1.00;;
14550;SDS011;7362;50.956;4.184;2022-10-16T03:12:11;3.22;;;1.10;;
14550;SDS011;7362;50.956;4.184;2022-10-16T03:14:37;2.85;;;1.33;;
14550;SDS011;7362;50.956;4.184;2022-10-16T03:17:05;2.15;;;1.33;;
14550;SDS011;7362;50.956;4.184;2022-10-16T03:19:31;4.00;;;1.60;;
14550;SDS011;7362;50.956;4.184;2022-10-16T03:22:01;2.28;;;1.27;;
14550;SDS011;7362;50.956;4.184;2022-10-16T03:24:29;3.45;;;1.45;;
14550;SDS011;7362;50.956;4.184;2022-10-16T03:26:55;3.50;;;1.40;;
14550;SDS011;7362;50.956;4.184;2022-10-16T03:29:21;6.65;;;1.52;;
14550;SDS011;7362;50.956;4.184;2022-10-16T03:31:50;2.38;;;1.17;;
14550;SDS011;7362;50.956;4.184;2022-10-16T03:34:17;3.25;;;1.13;;
14550;SDS011;7362;50.956;4.184;2022-10-16T03:36:44;2.63;;;1.60;;
14550;SDS011;7362;50.956;4.184;2022-10-16T03:39:21;2.28;;;1.40;;
14550;SDS011;7362;50.956;4.184;2022-10-16T03:41:58;2.38;;;1.63;;
14550;SDS011;7362;50.956;4.184;2022-10-16T03:44:24;1.58;;;1.10;;
14550;SDS011;7362;50.956;4.184;2022-10-16T03:46:51;1.40;;;1.20;;
14550;SDS011;7362;50.956;4.184;2022-10-16T03:49:16;1.48;;;1.13;;
14550;SDS011;7362;50.956;4.184;2022-10-16T03:51:42;2.25;;;1.23;;
14550;SDS011;7362;50.956;4.184;2022-10-16T03:54:09;1.50;;;1.23;;
14550;SDS011;7362;50.956;4.184;2022-10-16T03:56:35;2.63;;;1.30;;
14550;SDS011;7362;50.956;4.184;2022-10-16T03:59:03;2.22;;;1.30;;
14550;SDS011;7362;50.956;4.184;2022-10-16T04:01:30;2.50;;;1.50;;
14550;SDS011;7362;50.956;4.184;2022-10-16T04:03:56;3.97;;;1.08;;
14550;SDS011;7362;50.956;4.184;2022-10-16T04:06:23;1.73;;;1.10;;
14550;SDS011;7362;50.956;4.184;2022-10-16T04:08:51;2.72;;;1.50;;
14550;SDS011;7362;50.956;4.184;2022-10-16T04:11:18;3.50;;;1.15;;
14550;SDS011;7362;50.956;4.184;2022-10-16T04:13:45;2.58;;;1.20;;
14550;SDS011;7362;50.956;4.184;2022-10-16T04:16:13;2.63;;;1.00;;
14550;SDS011;7362;50.956;4.184;2022-10-16T04:18:39;1.63;;;1.02;;
14550;SDS011;7362;50.956;4.184;2022-10-16T04:21:05;5.20;;;1.40;;
14550;SDS011;7362;50.956;4.184;2022-10-16T04:23:31;1.90;;;1.10;;
14550;SDS011;7362;50.956;4.184;2022-10-16T04:25:58;2.35;;;1.10;;
14550;SDS011;7362;50.956;4.184;2022-10-16T04:28:24;1.85;;;1.10;;
14550;SDS011;7362;50.956;4.184;2022-10-16T04:30:56;2.75;;;1.10;;
14550;SDS011;7362;50.956;4.184;2022-10-16T04:33:21;2.25;;;1.30;;
14550;SDS011;7362;50.956;4.184;2022-10-16T04:35:47;6.35;;;1.48;;
14550;SDS011;7362;50.956;4.184;2022-10-16T04:38:13;2.50;;;1.27;;
14550;SDS011;7362;50.956;4.184;2022-10-16T04:40:39;4.13;;;1.42;;
14550;SDS011;7362;50.956;4.184;2022-10-16T04:43:10;2.20;;;1.00;;
14550;SDS011;7362;50.956;4.184;2022-10-16T04:45:35;2.50;;;1.30;;
14550;SDS011;7362;50.956;4.184;2022-10-16T04:48:01;5.93;;;1.65;;
14550;SDS011;7362;50.956;4.184;2022-10-16T04:50:27;3.40;;;1.10;;
14550;SDS011;7362;50.956;4.184;2022-10-16T04:52:53;2.80;;;1.52;;
14550;SDS011;7362;50.956;4.184;2022-10-16T04:55:23;4.45;;;1.40;;
14550;SDS011;7362;50.956;4.184;2022-10-16T04:57:50;3.05;;;1.25;;
14550;SDS011;7362;50.956;4.184;2022-10-16T05:00:17;1.70;;;1.30;;
14550;SDS011;7362;50.956;4.184;2022-10-16T05:02:43;1.65;;;0.95;;
14550;SDS011;7362;50.956;4.184;2022-10-16T05:05:09;3.10;;;1.10;;
14550;SDS011;7362;50.956;4.184;2022-10-16T05:07:36;2.42;;;1.23;;
14550;SDS011;7362;50.956;4.184;2022-10-16T05:10:02;2.45;;;1.20;;
14550;SDS011;7362;50.956;4.184;2022-10-16T05:12:30;3.05;;;1.60;;
14550;SDS011;7362;50.956;4.184;2022-10-16T05:15:03;2.95;;;1.63;;
14550;SDS011;7362;50.956;4.184;2022-10-16T05:17:30;1.33;;;1.23;;
14550;SDS011;7362;50.956;4.184;2022-10-16T05:19:55;3.13;;;1.60;;
14550;SDS011;7362;50.956;4.184;2022-10-16T05:22:21;2.42;;;1.30;;
14550;SDS011;7362;50.956;4.184;2022-10-16T05:24:47;3.33;;;1.50;;
14550;SDS011;7362;50.956;4.184;2022-10-16T05:27:12;2.55;;;1.38;;
14550;SDS011;7362;50.956;4.184;2022-10-16T05:29:47;2.08;;;1.25;;
14550;SDS011;7362;50.956;4.184;2022-10-16T05:32:14;3.25;;;1.17;;
14550;SDS011;7362;50.956;4.184;2022-10-16T05:34:41;2.80;;;1.48;;
14550;SDS011;7362;50.956;4.184;2022-10-16T05:37:07;2.50;;;1.70;;
14550;SDS011;7362;50.956;4.184;2022-10-16T05:39:33;3.67;;;1.30;;
14550;SDS011;7362;50.956;4.184;2022-10-16T05:41:59;3.53;;;1.63;;
14550;SDS011;7362;50.956;4.184;2022-10-16T05:44:25;4.60;;;1.50;;
14550;SDS011;7362;50.956;4.184;2022-10-16T05:46:52;3.83;;;1.65;;
14550;SDS011;7362;50.956;4.184;2022-10-16T05:49:19;3.50;;;1.40;;
14550;SDS011;7362;50.956;4.184;2022-10-16T05:51:45;4.10;;;1.60;;
14550;SDS011;7362;50.956;4.184;2022-10-16T05:54:11;2.20;;;1.50;;
14550;SDS011;7362;50.956;4.184;2022-10-16T05:56:38;3.50;;;1.92;;
14550;SDS011;7362;50.956;4.184;2022-10-16T05:59:04;3.83;;;1.55;;
14550;SDS011;7362;50.956;4.184;2022-10-16T06:01:32;4.50;;;1.88;;
14550;SDS011;7362;50.956;4.184;2022-10-16T06:04:03;3.45;;;1.90;;
14550;SDS011;7362;50.956;4.184;2022-10-16T06:06:29;1.98;;;1.50;;
14550;SDS011;7362;50.956;4.184;2022-10-16T06:08:56;6.57;;;2.05;;
14550;SDS011;7362;50.956;4.184;2022-10-16T06:11:23;2.63;;;1.67;;
14550;SDS011;7362;50.956;4.184;2022-10-16T06:13:55;2.42;;;1.40;;
14550;SDS011;7362;50.956;4.184;2022-10-16T06:16:24;3.30;;;2.08;;
14550;SDS011;7362;50.956;4.184;2022-10-16T06:18:52;3.42;;;2.05;;
14550;SDS011;7362;50.956;4.184;2022-10-16T06:21:20;3.95;;;1.60;;
14550;SDS011;7362;50.956;4.184;2022-10-16T06:23:47;3.75;;;1.70;;
14550;SDS011;7362;50.956;4.184;2022-10-16T06:26:14;2.55;;;1.38;;
14550;SDS011;7362;50.956;4.184;2022-10-16T06:28:42;4.80;;;1.80;;
14550;SDS011;7362;50.956;4.184;2022-10-16T06:31:11;2.60;;;1.70;;
14550;SDS011;7362;50.956;4.184;2022-10-16T06:33:37;2.47;;;1.30;;
14550;SDS011;7362;50.956;4.184;2022-10-16T06:36:09;2.35;;;1.58;;
14550;SDS011;7362;50.956;4.184;2022-10-16T06:38:36;4.15;;;1.58;;
14550;SDS011;7362;50.956;4.184;2022-10-16T06:41:04;3.42;;;1.73;;
14550;SDS011;7362;50.956;4.184;2022-10-16T06:43:31;2.92;;;1.42;;
14550;SDS011;7362;50.956;4.184;2022-10-16T06:46:04;3.70;;;1.40;;
14550;SDS011;7362;50.956;4.184;2022-10-16T06:48:37;3.25;;;1.58;;
14550;SDS011;7362;50.956;4.184;2022-10-16T06:51:08;2.92;;;1.38;;
14550;SDS011;7362;50.956;4.184;2022-10-16T06:53:40;3.65;;;2.00;;
14550;SDS011;7362;50.956;4.184;2022-10-16T06:56:11;2.47;;;1.33;;
14550;SDS011;7362;50.956;4.184;2022-10-16T06:58:48;2.95;;;1.40;;
14550;SDS011;7362;50.956;4.184;2022-10-16T07:01:15;4.22;;;1.73;;
14550;SDS011;7362;50.956;4.184;2022-10-16T07:03:44;4.35;;;1.30;;
14550;SDS011;7362;50.956;4.184;2022-10-16T07:06:14;4.20;;;2.05;;
14550;SDS011;7362;50.956;4.184;2022-10-16T07:08:42;2.45;;;1.58;;
14550;SDS011;7362;50.956;4.184;2022-10-16T07:11:10;3.58;;;1.45;;
14550;SDS011;7362;50.956;4.184;2022-10-16T07:13:41;4.38;;;1.73;;
14550;SDS011;7362;50.956;4.184;2022-10-16T07:16:09;3.03;;;1.70;;
14550;SDS011;7362;50.956;4.184;2022-10-16T07:18:46;3.78;;;1.80;;
14550;SDS011;7362;50.956;4.184;2022-10-16T07:21:14;4.03;;;2.05;;
14550;SDS011;7362;50.956;4.184;2022-10-16T07:23:41;1.73;;;1.42;;
14550;SDS011;7362;50.956;4.184;2022-10-16T07:26:08;4.82;;;1.45;;
14550;SDS011;7362;50.956;4.184;2022-10-16T07:28:35;3.10;;;1.58;;
14550;SDS011;7362;50.956;4.184;2022-10-16T07:31:04;2.53;;;1.60;;
14550;SDS011;7362;50.956;4.184;2022-10-16T07:33:32;2.10;;;1.30;;
14550;SDS011;7362;50.956;4.184;2022-10-16T07:35:59;5.55;;;1.85;;
14550;SDS011;7362;50.956;4.184;2022-10-16T07:38:24;2.70;;;1.60;;
14550;SDS011;7362;50.956;4.184;2022-10-16T07:41:03;2.67;;;1.77;;
14550;SDS011;7362;50.956;4.184;2022-10-16T07:43:31;3.03;;;1.75;;
14550;SDS011;7362;50.956;4.184;2022-10-16T07:45:58;3.67;;;1.98;;
14550;SDS011;7362;50.956;4.184;2022-10-16T07:48:28;2.65;;;1.60;;
14550;SDS011;7362;50.956;4.184;2022-10-16T07:51:03;4.90;;;1.98;;
14550;SDS011;7362;50.956;4.184;2022-10-16T07:53:30;2.83;;;1.65;;
14550;SDS011;7362;50.956;4.184;2022-10-16T07:55:57;4.97;;;1.85;;
14550;SDS011;7362;50.956;4.184;2022-10-16T07:58:30;3.72;;;1.92;;
14550;SDS011;7362;50.956;4.184;2022-10-16T08:00:57;6.50;;;2.15;;
14550;SDS011;7362;50.956;4.184;2022-10-16T08:03:23;2.33;;;1.58;;
14550;SDS011;7362;50.956;4.184;2022-10-16T08:05:51;2.60;;;1.60;;
14550;SDS011;7362;50.956;4.184;2022-10-16T08:08:18;4.95;;;2.03;;
14550;SDS011;7362;50.956;4.184;2022-10-16T08:10:44;3.10;;;1.85;;
14550;SDS011;7362;50.956;4.184;2022-10-16T08:13:09;5.75;;;1.67;;
14550;SDS011;7362;50.956;4.184;2022-10-16T08:15:36;2.97;;;1.60;;
14550;SDS011;7362;50.956;4.184;2022-10-16T08:18:03;5.78;;;1.92;;
14550;SDS011;7362;50.956;4.184;2022-10-16T08:20:32;2.67;;;1.45;;
14550;SDS011;7362;50.956;4.184;2022-10-16T08:23:01;3.00;;;1.52;;
14550;SDS011;7362;50.956;4.184;2022-10-16T08:25:27;3.38;;;1.48;;
14550;SDS011;7362;50.956;4.184;2022-10-16T08:27:54;2.90;;;1.70;;
14550;SDS011;7362;50.956;4.184;2022-10-16T08:30:20;3.08;;;1.65;;
14550;SDS011;7362;50.956;4.184;2022-10-16T08:32:47;2.90;;;1.58;;
14550;SDS011;7362;50.956;4.184;2022-10-16T08:35:13;4.13;;;1.58;;
14550;SDS011;7362;50.956;4.184;2022-10-16T08:37:41;6.50;;;1.80;;
14550;SDS011;7362;50.956;4.184;2022-10-16T08:40:16;4.68;;;1.27;;
14550;SDS011;7362;50.956;4.184;2022-10-16T08:45:31;5.28;;;2.05;;
14550;SDS011;7362;50.956;4.184;2022-10-16T08:48:46;4.00;;;1.60;;
14550;SDS011;7362;50.956;4.184;2022-10-16T08:51:24;2.78;;;1.60;;
14550;SDS011;7362;50.956;4.184;2022-10-16T08:53:56;4.90;;;1.67;;
14550;SDS011;7362;50.956;4.184;2022-10-16T08:58:53;3.80;;;1.50;;
14550;SDS011;7362;50.956;4.184;2022-10-16T09:01:22;4.47;;;1.30;;
14550;SDS011;7362;50.956;4.184;2022-10-16T09:20:42;3.28;;;1.50;;
14550;SDS011;7362;50.956;4.184;2022-10-16T09:23:29;5.03;;;1.50;;
14550;SDS011;7362;50.956;4.184;2022-10-16T09:25:59;3.75;;;1.38;;
14550;SDS011;7362;50.956;4.184;2022-10-16T09:28:27;2.25;;;1.20;;
14550;SDS011;7362;50.956;4.184;2022-10-16T09:30:53;4.25;;;1.75;;
14550;SDS011;7362;50.956;4.184;2022-10-16T09:33:29;4.75;;;1.55;;
14550;SDS011;7362;50.956;4.184;2022-10-16T09:36:01;4.25;;;1.40;;
14550;SDS011;7362;50.956;4.184;2022-10-16T09:38:32;5.13;;;1.50;;
14550;SDS011;7362;50.956;4.184;2022-10-16T09:41:10;3.33;;;1.55;;
14550;SDS011;7362;50.956;4.184;2022-10-16T09:43:46;2.47;;;1.00;;
14550;SDS011;7362;50.956;4.184;2022-10-16T09:49:01;5.68;;;2.20;;
14550;SDS011;7362;50.956;4.184;2022-10-16T09:51:45;2.63;;;1.00;;
14550;SDS011;7362;50.956;4.184;2022-10-16T09:54:20;2.42;;;1.38;;
14550;SDS011;7362;50.956;4.184;2022-10-16T09:56:50;4.55;;;2.08;;
14550;SDS011;7362;50.956;4.184;2022-10-16T09:59:21;3.38;;;1.10;;
14550;SDS011;7362;50.956;4.184;2022-10-16T10:01:53;4.00;;;1.20;;
14550;SDS011;7362;50.956;4.184;2022-10-16T10:04:37;2.58;;;1.33;;
14550;SDS011;7362;50.956;4.184;2022-10-16T10:07:07;4.80;;;1.50;;
14550;SDS011;7362;50.956;4.184;2022-10-16T10:10:02;5.13;;;1.13;;
14550;SDS011;7362;50.956;4.184;2022-10-16T10:12:31;3.05;;;1.00;;
14550;SDS011;7362;50.956;4.184;2022-10-16T10:15:06;3.35;;;1.33;;
14550;SDS011;7362;50.956;4.184;2022-10-16T10:17:46;4.40;;;1.50;;
14550;SDS011;7362;50.956;4.184;2022-10-16T10:23:22;2.80;;;1.30;;
14550;SDS011;7362;50.956;4.184;2022-10-16T10:26:11;7.43;;;1.45;;
14550;SDS011;7362;50.956;4.184;2022-10-16T10:29:03;4.30;;;1.77;;
14550;SDS011;7362;50.956;4.184;2022-10-16T10:35:05;2.50;;;0.90;;
14550;SDS011;7362;50.956;4.184;2022-10-16T10:40:24;2.92;;;1.10;;
14550;SDS011;7362;50.956;4.184;2022-10-16T10:43:15;3.85;;;1.00;;
14550;SDS011;7362;50.956;4.184;2022-10-16T10:46:06;5.13;;;1.38;;
14550;SDS011;7362;50.956;4.184;2022-10-16T10:51:59;3.50;;;1.20;;
14550;SDS011;7362;50.956;4.184;2022-10-16T10:57:30;2.53;;;1.40;;
14550;SDS011;7362;50.956;4.184;2022-10-16T11:00:40;7.53;;;1.42;;
14550;SDS011;7362;50.956;4.184;2022-10-16T11:06:07;2.50;;;0.95;;
14550;SDS011;7362;50.956;4.184;2022-10-16T11:11:42;4.00;;;1.23;;
14550;SDS011;7362;50.956;4.184;2022-10-16T11:17:05;2.60;;;1.35;;
14550;SDS011;7362;50.956;4.184;2022-10-16T11:22:26;4.90;;;1.58;;
14550;SDS011;7362;50.956;4.184;2022-10-16T11:25:20;3.38;;;1.52;;
14550;SDS011;7362;50.956;4.184;2022-10-16T11:37:12;3.83;;;1.20;;
14550;SDS011;7362;50.956;4.184;2022-10-16T11:39:42;2.90;;;1.23;;
14550;SDS011;7362;50.956;4.184;2022-10-16T11:42:13;4.47;;;1.48;;
14550;SDS011;7362;50.956;4.184;2022-10-16T11:56:06;4.78;;;1.65;;
14550;SDS011;7362;50.956;4.184;2022-10-16T12:07:21;2.22;;;1.10;;
14550;SDS011;7362;50.956;4.184;2022-10-16T12:10:34;3.67;;;1.02;;
14550;SDS011;7362;50.956;4.184;2022-10-16T12:13:36;3.53;;;0.90;;
14550;SDS011;7362;50.956;4.184;2022-10-16T12:16:22;3.85;;;1.13;;
14550;SDS011;7362;50.956;4.184;2022-10-16T12:21:39;2.20;;;1.00;;
14550;SDS011;7362;50.956;4.184;2022-10-16T12:24:29;2.63;;;1.23;;
14550;SDS011;7362;50.956;4.184;2022-10-16T12:27:32;1.45;;;0.95;;
14550;SDS011;7362;50.956;4.184;2022-10-16T12:30:01;2.55;;;0.80;;
14550;SDS011;7362;50.956;4.184;2022-10-16T12:32:38;3.25;;;0.98;;
14550;SDS011;7362;50.956;4.184;2022-10-16T12:35:24;2.83;;;0.93;;
14550;SDS011;7362;50.956;4.184;2022-10-16T12:38:04;3.03;;;0.98;;
14550;SDS011;7362;50.956;4.184;2022-10-16T12:40:43;6.13;;;1.40;;
14550;SDS011;7362;50.956;4.184;2022-10-16T12:48:49;2.47;;;1.67;;
14550;SDS011;7362;50.956;4.184;2022-10-16T12:53:59;3.13;;;1.65;;
14550;SDS011;7362;50.956;4.184;2022-10-16T12:56:47;10.88;;;9.65;;
14550;SDS011;7362;50.956;4.184;2022-10-16T12:59:40;2.72;;;1.25;;
14550;SDS011;7362;50.956;4.184;2022-10-16T13:02:46;26.80;;;22.13;;
14550;SDS011;7362;50.956;4.184;2022-10-16T13:05:40;40.92;;;34.80;;
14550;SDS011;7362;50.956;4.184;2022-10-16T13:14:27;6.97;;;4.45;;
14550;SDS011;7362;50.956;4.184;2022-10-16T13:20:20;11.13;;;8.32;;
14550;SDS011;7362;50.956;4.184;2022-10-16T13:23:09;18.63;;;15.40;;
14550;SDS011;7362;50.956;4.184;2022-10-16T13:28:58;37.30;;;28.98;;
14550;SDS011;7362;50.956;4.184;2022-10-16T13:31:33;4.97;;;2.38;;
14550;SDS011;7362;50.956;4.184;2022-10-16T13:34:06;3.28;;;2.05;;
14550;SDS011;7362;50.956;4.184;2022-10-16T13:36:49;2.83;;;1.40;;
14550;SDS011;7362;50.956;4.184;2022-10-16T13:39:29;19.00;;;12.98;;
14550;SDS011;7362;50.956;4.184;2022-10-16T13:42:14;48.97;;;29.73;;
14550;SDS011;7362;50.956;4.184;2022-10-16T13:45:25;106.57;;;64.07;;
14550;SDS011;7362;50.956;4.184;2022-10-16T13:48:02;199.18;;;116.25;;
14550;SDS011;7362;50.956;4.184;2022-10-16T13:50:43;130.63;;;81.05;;
14550;SDS011;7362;50.956;4.184;2022-10-16T13:56:12;50.55;;;32.13;;
14550;SDS011;7362;50.956;4.184;2022-10-16T13:58:45;74.30;;;49.20;;
14550;SDS011;7362;50.956;4.184;2022-10-16T14:01:19;107.72;;;67.93;;
14550;SDS011;7362;50.956;4.184;2022-10-16T14:03:48;57.33;;;43.38;;
14550;SDS011;7362;50.956;4.184;2022-10-16T14:06:16;28.30;;;19.35;;
14550;SDS011;7362;50.956;4.184;2022-10-16T14:08:48;40.88;;;28.33;;
14550;SDS011;7362;50.956;4.184;2022-10-16T14:11:23;55.70;;;34.58;;
14550;SDS011;7362;50.956;4.184;2022-10-16T14:14:00;25.20;;;14.98;;
14550;SDS011;7362;50.956;4.184;2022-10-16T14:16:29;42.33;;;25.70;;
14550;SDS011;7362;50.956;4.184;2022-10-16T14:19:04;22.13;;;14.57;;
14550;SDS011;7362;50.956;4.184;2022-10-16T14:21:34;20.02;;;11.80;;
14550;SDS011;7362;50.956;4.184;2022-10-16T14:27:34;38.53;;;25.10;;
14550;SDS011;7362;50.956;4.184;2022-10-16T14:30:16;16.02;;;10.82;;
14550;SDS011;7362;50.956;4.184;2022-10-16T14:41:07;6.47;;;3.88;;
14550;SDS011;7362;50.956;4.184;2022-10-16T14:43:38;3.00;;;1.90;;
14550;SDS011;7362;50.956;4.184;2022-10-16T14:46:11;6.28;;;3.25;;
14550;SDS011;7362;50.956;4.184;2022-10-16T14:48:46;10.10;;;6.18;;
14550;SDS011;7362;50.956;4.184;2022-10-16T14:51:14;5.18;;;1.75;;
14550;SDS011;7362;50.956;4.184;2022-10-16T14:53:40;20.10;;;10.55;;
14550;SDS011;7362;50.956;4.184;2022-10-16T14:56:29;12.77;;;7.28;;
14550;SDS011;7362;50.956;4.184;2022-10-16T14:58:55;11.88;;;6.03;;
14550;SDS011;7362;50.956;4.184;2022-10-16T15:01:38;8.55;;;5.35;;
14550;SDS011;7362;50.956;4.184;2022-10-16T15:09:38;40.45;;;23.58;;
14550;SDS011;7362;50.956;4.184;2022-10-16T15:12:06;9.02;;;5.72;;
14550;SDS011;7362;50.956;4.184;2022-10-16T15:14:32;25.88;;;12.98;;
14550;SDS011;7362;50.956;4.184;2022-10-16T15:17:02;24.25;;;13.48;;
14550;SDS011;7362;50.956;4.184;2022-10-16T15:19:28;13.75;;;8.30;;
14550;SDS011;7362;50.956;4.184;2022-10-16T15:21:58;7.10;;;4.00;;
14550;SDS011;7362;50.956;4.184;2022-10-16T15:24:31;4.63;;;1.80;;
14550;SDS011;7362;50.956;4.184;2022-10-16T15:26:58;8.25;;;4.53;;
14550;SDS011;7362;50.956;4.184;2022-10-16T15:29:29;13.45;;;7.53;;
14550;SDS011;7362;50.956;4.184;2022-10-16T15:32:12;6.43;;;3.13;;
14550;SDS011;7362;50.956;4.184;2022-10-16T15:34:45;10.23;;;5.00;;
14550;SDS011;7362;50.956;4.184;2022-10-16T15:37:16;11.60;;;5.60;;
14550;SDS011;7362;50.956;4.184;2022-10-16T15:39:49;6.88;;;4.70;;
14550;SDS011;7362;50.956;4.184;2022-10-16T15:42:18;4.60;;;2.42;;
14550;SDS011;7362;50.956;4.184;2022-10-16T15:44:43;11.05;;;5.18;;
14550;SDS011;7362;50.956;4.184;2022-10-16T15:47:10;9.65;;;5.72;;
14550;SDS011;7362;50.956;4.184;2022-10-16T15:49:36;9.27;;;3.85;;
14550;SDS011;7362;50.956;4.184;2022-10-16T15:52:01;6.38;;;2.85;;
14550;SDS011;7362;50.956;4.184;2022-10-16T15:54:28;9.23;;;3.17;;
14550;SDS011;7362;50.956;4.184;2022-10-16T15:56:54;4.55;;;2.40;;
14550;SDS011;7362;50.956;4.184;2022-10-16T15:59:20;5.15;;;1.88;;
14550;SDS011;7362;50.956;4.184;2022-10-16T16:01:46;7.22;;;3.33;;
14550;SDS011;7362;50.956;4.184;2022-10-16T16:04:12;5.80;;;2.47;;
14550;SDS011;7362;50.956;4.184;2022-10-16T16:06:37;5.65;;;2.25;;
14550;SDS011;7362;50.956;4.184;2022-10-16T16:09:13;6.28;;;2.22;;
14550;SDS011;7362;50.956;4.184;2022-10-16T16:11:41;8.20;;;3.17;;
14550;SDS011;7362;50.956;4.184;2022-10-16T16:14:11;4.30;;;1.83;;
14550;SDS011;7362;50.956;4.184;2022-10-16T16:16:39;4.13;;;2.33;;
14550;SDS011;7362;50.956;4.184;2022-10-16T16:19:12;5.10;;;2.22;;
14550;SDS011;7362;50.956;4.184;2022-10-16T16:21:38;3.95;;;1.98;;
14550;SDS011;7362;50.956;4.184;2022-10-16T16:24:04;5.40;;;1.77;;
14550;SDS011;7362;50.956;4.184;2022-10-16T16:26:33;6.97;;;4.00;;
14550;SDS011;7362;50.956;4.184;2022-10-16T16:29:03;6.05;;;2.85;;
14550;SDS011;7362;50.956;4.184;2022-10-16T16:31:46;4.07;;;1.63;;
14550;SDS011;7362;50.956;4.184;2022-10-16T16:34:16;3.05;;;1.83;;
14550;SDS011;7362;50.956;4.184;2022-10-16T16:36:43;7.93;;;2.72;;
14550;SDS011;7362;50.956;4.184;2022-10-16T16:39:10;3.67;;;1.85;;
14550;SDS011;7362;50.956;4.184;2022-10-16T16:41:38;4.97;;;1.92;;
14550;SDS011;7362;50.956;4.184;2022-10-16T16:44:08;5.57;;;2.45;;
14550;SDS011;7362;50.956;4.184;2022-10-16T16:46:48;3.22;;;1.70;;
14550;SDS011;7362;50.956;4.184;2022-10-16T16:49:21;5.95;;;2.40;;
14550;SDS011;7362;50.956;4.184;2022-10-16T16:51:50;18.98;;;10.52;;
14550;SDS011;7362;50.956;4.184;2022-10-16T16:54:24;16.33;;;8.80;;
14550;SDS011;7362;50.956;4.184;2022-10-16T16:56:51;13.07;;;7.07;;
14550;SDS011;7362;50.956;4.184;2022-10-16T16:59:19;8.90;;;4.03;;
14550;SDS011;7362;50.956;4.184;2022-10-16T17:01:47;3.28;;;2.08;;
14550;SDS011;7362;50.956;4.184;2022-10-16T17:04:13;5.38;;;2.97;;
14550;SDS011;7362;50.956;4.184;2022-10-16T17:06:41;4.45;;;1.90;;
14550;SDS011;7362;50.956;4.184;2022-10-16T17:09:07;5.28;;;2.40;;
14550;SDS011;7362;50.956;4.184;2022-10-16T17:11:37;7.45;;;2.38;;
14550;SDS011;7362;50.956;4.184;2022-10-16T17:14:04;6.55;;;2.92;;
14550;SDS011;7362;50.956;4.184;2022-10-16T17:16:36;4.43;;;2.20;;
14550;SDS011;7362;50.956;4.184;2022-10-16T17:19:07;4.75;;;3.03;;
14550;SDS011;7362;50.956;4.184;2022-10-16T17:21:36;3.75;;;2.42;;
14550;SDS011;7362;50.956;4.184;2022-10-16T17:24:05;7.32;;;3.20;;
14550;SDS011;7362;50.956;4.184;2022-10-16T17:26:32;5.57;;;3.70;;
14550;SDS011;7362;50.956;4.184;2022-10-16T17:29:03;4.68;;;3.65;;
14550;SDS011;7362;50.956;4.184;2022-10-16T17:31:30;7.60;;;4.47;;
14550;SDS011;7362;50.956;4.184;2022-10-16T17:34:01;7.60;;;4.13;;
14550;SDS011;7362;50.956;4.184;2022-10-16T17:36:29;9.25;;;5.10;;
14550;SDS011;7362;50.956;4.184;2022-10-16T17:41:45;10.32;;;4.57;;
14550;SDS011;7362;50.956;4.184;2022-10-16T17:44:15;6.95;;;3.78;;
14550;SDS011;7362;50.956;4.184;2022-10-16T17:46:45;7.43;;;3.28;;
14550;SDS011;7362;50.956;4.184;2022-10-16T17:49:12;6.15;;;3.55;;
14550;SDS011;7362;50.956;4.184;2022-10-16T17:51:37;5.22;;;3.67;;
14550;SDS011;7362;50.956;4.184;2022-10-16T17:54:03;5.50;;;4.05;;